Hyrum, UT (84319)

12:03 AM MDT on May 07, 2015 (GMT -0600)
Mouth of BSF Canyon | | Change Station
CLOSE
Current Station
Personal Weather Station
Location: Hyrum, UT
Elevation: 4829 ft
Nearby Weather Stations

Elev 4829 ft 41.63 °N, 111.82 °W | Updated 20 seconds ago

Rain
Rain
45.9 °F
Feels Like 46 °F
N
1.6
Wind Variable Wind from NW
Gusts 2.2 mph

Today
High -- | Low -- °F
--% Chance of Precip.
Yesterday
High -- | Low -- °F
Precip. -- in
6:16 AM 8:31 PM
Waning Gibbous, 90% visible
Pressure 29.78 in
Visibility 4.0 miles
Clouds Few 700 ft
Mostly Cloudy 1200 ft
Overcast 2600 ft
Windchill 46 °F
Dew Point 46 °F
Humidity 99%
Rainfall 0.00 in
Snow Depth Not available.
UV 0 out of 12
Pollen 7.40 out of 12
Air Quality Not available.
Flu Activity Regional
SPECI KLGU 070557Z AUTO 22005KT 4SM RA BR FEW007 BKN012 OVC026 09/08 A2978 RMK AO2 P0003 T00890078

More Conditions Fewer Conditions

Pressure 29.78 in
Visibility 4.0 miles
Clouds Few 700 ft
Mostly Cloudy 1200 ft
Overcast 2600 ft
Windchill 46 °F
Dew Point 46 °F
Humidity 99%
Rainfall 0.00 in
Snow Depth Not available.
UV 0 out of 12
Pollen 7.40 out of 12
Air Quality Not available.
Flu Activity Regional
SPECI KLGU 070557Z AUTO 22005KT 4SM RA BR FEW007 BKN012 OVC026 09/08 A2978 RMK AO2 P0003 T00890078

More Conditions Fewer Conditions

10-Day Weather Forecast

Almanac

Astronomy

May. 07, 2015 Rise Set
Actual Time
Civil Twilight
Nautical Twilight
Astronomical Twilight
Moon
Length of Visible Light
Length of Day
Tomorrow will be .
, % of the Moon is Illuminated

Today's Extremes

State Highs State Lows

Community

WunderPhotos

Upload Photos

1,819,126 photos uploaded!

WunderBlogs® & News

Nearby

Air Quality

  Air Quality AQ Index Pollutant
Not available.

Snow Depth

Station Depth Elevation

Earthquake Activity

City Distance Mag. Time & Date
Minimum magnitude displayed is 2.5.

Coastal Water Temperatures

Place Temperature

Stations

Nearby Weather Stations

Station Location Temp. Windchill Dew Point Humidity Wind Precip. Elev Updated Type